createdAt,value
2023-04-02T09:35:53.322Z,1.17
2023-04-02T09:38:28.883Z,2.30
2023-04-02T09:41:05.260Z,2.38
2023-04-02T09:43:37.445Z,3.88
2023-04-02T09:46:14.005Z,1.60
2023-04-02T09:48:45.649Z,1.60
2023-04-02T09:51:18.300Z,1.75
2023-04-02T09:54:15.982Z,1.38
2023-04-02T09:57:04.334Z,1.33
2023-04-02T09:59:31.963Z,2.05
2023-04-02T10:02:03.276Z,1.58
2023-04-02T10:04:47.979Z,1.05
2023-04-02T10:07:42.173Z,1.20
2023-04-02T10:10:44.692Z,1.63
2023-04-02T10:13:46.446Z,1.60
2023-04-02T10:16:37.745Z,1.60
2023-04-02T10:19:34.782Z,0.90
2023-04-02T10:22:20.943Z,1.15
2023-04-02T10:24:49.922Z,1.73
2023-04-02T10:27:37.973Z,1.40
2023-04-02T10:30:11.499Z,2.50
2023-04-02T10:33:23.193Z,1.67
2023-04-02T10:36:37.545Z,1.20
2023-04-02T10:39:33.855Z,1.15
2023-04-02T10:42:22.745Z,1.70
2023-04-02T10:45:28.469Z,1.75
2023-04-02T10:48:20.781Z,0.70
2023-04-02T10:51:11.917Z,0.85
2023-04-02T10:54:02.940Z,1.08
2023-04-02T10:56:44.228Z,0.75
2023-04-02T10:59:33.292Z,1.73
2023-04-02T11:02:15.152Z,0.80
2023-04-02T11:04:46.458Z,1.05
2023-04-02T11:07:27.546Z,2.60
2023-04-02T11:09:58.239Z,1.10
2023-04-02T11:12:55.935Z,1.00
2023-04-02T11:15:26.183Z,0.85
2023-04-02T11:17:54.663Z,1.30
2023-04-02T11:20:49.090Z,0.85
2023-04-02T11:23:20.900Z,1.83
2023-04-02T11:25:48.698Z,1.40
2023-04-02T11:28:31.840Z,1.02
2023-04-02T11:31:00.236Z,0.90
2023-04-02T11:33:44.074Z,0.98
2023-04-02T11:36:50.740Z,0.80
2023-04-02T11:39:51.433Z,0.90
2023-04-02T11:42:19.034Z,1.02
2023-04-02T11:44:46.655Z,0.82
2023-04-02T11:47:25.738Z,1.02
2023-04-02T11:50:01.252Z,1.75
2023-04-02T11:52:51.075Z,1.45
2023-04-02T11:55:27.346Z,1.67
2023-04-02T11:58:32.822Z,1.02
2023-04-02T12:01:09.211Z,0.90
2023-04-02T12:03:52.984Z,1.20
2023-04-02T12:06:46.694Z,1.20
2023-04-02T12:09:24.982Z,1.33
2023-04-02T12:12:02.632Z,1.63
2023-04-02T12:14:33.158Z,1.55
2023-04-02T12:17:01.491Z,1.40
2023-04-02T12:19:31.967Z,1.20
2023-04-02T12:22:00.544Z,1.48
2023-04-02T12:24:31.270Z,2.30
2023-04-02T12:27:24.370Z,1.30
2023-04-02T12:30:19.059Z,0.90
2023-04-02T12:33:15.917Z,0.80
2023-04-02T12:35:45.588Z,1.20
2023-04-02T12:38:23.662Z,1.58
2023-04-02T12:41:01.995Z,1.55
2023-04-02T12:43:33.808Z,1.23
2023-04-02T12:46:05.917Z,1.08
2023-04-02T12:48:35.970Z,1.08
2023-04-02T12:51:04.831Z,1.08
2023-04-02T12:53:40.439Z,1.08
2023-04-02T12:56:21.642Z,0.90
2023-04-02T12:59:00.614Z,0.70
2023-04-02T13:01:33.926Z,0.70
2023-04-02T13:04:14.885Z,0.60
2023-04-02T13:06:52.133Z,0.80
2023-04-02T13:09:35.814Z,0.77
2023-04-02T13:12:03.939Z,1.80
2023-04-02T13:14:31.563Z,1.02
2023-04-02T13:16:58.747Z,0.98
2023-04-02T13:19:33.987Z,1.17
2023-04-02T13:22:04.157Z,1.27
2023-04-02T13:24:33.778Z,1.08
2023-04-02T13:27:03.535Z,0.77
2023-04-02T13:29:35.112Z,1.00
2023-04-02T13:32:12.254Z,1.15
2023-04-02T13:34:39.338Z,1.27
2023-04-02T13:37:06.467Z,1.98
2023-04-02T13:39:33.587Z,1.20
2023-04-02T13:42:04.424Z,1.40
2023-04-02T13:44:34.743Z,1.30
2023-04-02T13:47:01.932Z,1.20
2023-04-02T13:49:31.087Z,1.20
2023-04-02T13:54:55.226Z,1.30
2023-04-02T13:57:22.485Z,1.58
2023-04-02T13:59:49.819Z,1.40
2023-04-02T14:02:25.202Z,1.30
2023-04-02T14:05:55.525Z,1.00
2023-04-02T14:08:37.760Z,1.08
2023-04-02T14:11:52.175Z,1.08
2023-04-02T14:14:48.107Z,2.53
2023-04-02T14:18:33.028Z,1.20
2023-04-02T14:21:27.647Z,1.23
2023-04-02T14:24:41.479Z,1.20
2023-04-02T14:28:00.693Z,2.80
2023-04-02T14:31:07.006Z,1.48
2023-04-02T14:33:49.309Z,0.85
2023-04-02T14:36:24.991Z,0.80
2023-04-02T14:39:17.735Z,1.17
2023-04-02T14:42:04.454Z,2.08
2023-04-02T14:44:43.894Z,1.30
2023-04-02T14:47:46.556Z,1.00
2023-04-02T14:50:34.944Z,1.33
2023-04-02T14:53:19.941Z,1.33
2023-04-02T14:55:52.375Z,1.60
2023-04-02T14:58:40.943Z,1.42
2023-04-02T15:01:21.848Z,1.58
2023-04-02T15:04:06.099Z,0.98
2023-04-02T15:06:50.649Z,1.00
2023-04-02T15:09:32.290Z,0.90
2023-04-02T15:12:23.024Z,1.17
2023-04-02T15:15:44.800Z,1.52
2023-04-02T15:18:17.117Z,1.70
2023-04-02T15:21:20.514Z,1.10
2023-04-02T15:24:47.799Z,1.00
2023-04-02T15:27:51.360Z,1.10
2023-04-02T15:30:25.612Z,0.90
2023-04-02T15:33:30.020Z,1.00
2023-04-02T15:36:29.469Z,1.10
2023-04-02T15:39:22.039Z,1.08
2023-04-02T15:42:19.066Z,1.30
2023-04-02T15:45:12.731Z,1.00
2023-04-02T15:48:23.785Z,1.40
2023-04-02T15:51:37.009Z,1.92
2023-04-02T15:54:26.896Z,1.48
2023-04-02T15:57:23.154Z,1.30
2023-04-02T16:00:30.774Z,1.50
2023-04-02T16:03:29.903Z,1.60
2023-04-02T16:06:32.413Z,1.60
2023-04-02T16:09:24.363Z,1.30
2023-04-02T16:12:19.043Z,1.70
2023-04-02T16:14:49.581Z,1.70
2023-04-02T16:17:31.197Z,1.90
2023-04-02T16:20:27.373Z,2.28
2023-04-02T16:23:11.566Z,2.28
2023-04-02T16:26:02.595Z,4.32
2023-04-02T16:28:40.306Z,1.50
2023-04-02T16:31:32.081Z,1.27
2023-04-02T16:34:44.085Z,1.30
2023-04-02T16:37:32.250Z,1.15
2023-04-02T16:40:25.588Z,1.00
2023-04-02T16:43:25.416Z,1.40
2023-04-02T16:46:35.871Z,2.08
2023-04-02T16:50:01.601Z,1.42
2023-04-02T16:53:03.413Z,1.20
2023-04-02T16:56:07.289Z,1.17
2023-04-02T16:59:11.883Z,1.20
2023-04-02T17:02:02.894Z,1.40
2023-04-02T17:04:54.581Z,1.10
2023-04-02T17:07:42.570Z,1.45
2023-04-02T17:11:01.896Z,1.90
2023-04-02T17:13:46.377Z,1.13
2023-04-02T17:16:45.496Z,1.17
2023-04-02T17:19:17.441Z,1.05
2023-04-02T17:21:52.254Z,1.02
2023-04-02T17:24:28.453Z,1.30
2023-04-02T17:27:07.257Z,1.13
2023-04-02T17:29:43.720Z,1.00
2023-04-02T17:32:33.724Z,1.83
2023-04-02T17:35:53.825Z,1.55
2023-04-02T17:38:51.299Z,1.47
2023-04-02T17:41:43.720Z,1.50
2023-04-02T17:45:11.376Z,1.30
2023-04-02T17:48:00.552Z,1.88
2023-04-02T17:50:49.141Z,1.33
2023-04-02T17:53:53.036Z,1.50
2023-04-02T17:56:59.690Z,1.52
2023-04-02T18:00:14.253Z,1.58
2023-04-02T18:03:22.266Z,1.50
2023-04-02T18:06:07.127Z,2.00
2023-04-02T18:09:04.402Z,1.90
2023-04-02T18:12:29.754Z,1.67
2023-04-02T18:15:55.806Z,1.92
2023-04-02T18:18:49.990Z,2.20
2023-04-02T18:22:13.946Z,3.03
2023-04-02T18:25:24.656Z,2.60
2023-04-02T18:28:19.312Z,3.20
2023-04-02T18:31:27.151Z,3.30
2023-04-02T18:34:22.064Z,3.42
2023-04-02T18:37:43.495Z,3.05
2023-04-02T18:40:19.957Z,2.83
2023-04-02T18:42:58.643Z,3.00
2023-04-02T18:45:56.300Z,2.88
2023-04-02T18:48:53.679Z,2.83
2023-04-02T18:51:25.127Z,2.67
2023-04-02T18:54:14.479Z,3.03
2023-04-02T18:56:42.761Z,3.38
2023-04-02T18:59:34.277Z,3.50
2023-04-02T19:02:28.377Z,3.40
2023-04-02T19:05:13.018Z,2.97
2023-04-02T19:07:43.577Z,2.92
2023-04-02T19:10:35.572Z,2.80
2023-04-02T19:13:08.120Z,4.05
2023-04-02T19:16:14.449Z,3.40
2023-04-02T19:19:14.201Z,3.20
2023-04-02T19:21:51.439Z,4.65
2023-04-02T19:24:46.890Z,3.65
2023-04-02T19:27:51.442Z,2.95
2023-04-02T19:30:37.951Z,2.90
2023-04-02T19:33:37.920Z,3.00
2023-04-02T19:36:38.726Z,2.58
2023-04-02T19:39:46.921Z,2.60
2023-04-02T19:42:39.003Z,2.80
2023-04-02T19:45:19.952Z,2.75
2023-04-02T19:47:48.336Z,2.30
2023-04-02T19:50:16.163Z,2.80
2023-04-02T19:52:43.867Z,2.83
2023-04-02T19:55:12.277Z,2.97
2023-04-02T19:57:40.256Z,2.50
2023-04-02T20:00:10.782Z,2.45
2023-04-02T20:02:39.827Z,2.50
2023-04-02T20:05:10.827Z,2.80
2023-04-02T20:07:38.842Z,2.40
2023-04-02T20:10:07.997Z,2.72
2023-04-02T20:12:35.942Z,2.60
2023-04-02T20:15:07.370Z,3.30
2023-04-02T20:17:35.048Z,3.45
2023-04-02T20:20:02.897Z,3.20
2023-04-02T20:22:30.499Z,3.00
2023-04-02T20:24:58.116Z,3.72
2023-04-02T20:27:25.841Z,3.38
2023-04-02T20:29:56.021Z,3.42
2023-04-02T20:32:24.442Z,3.03
2023-04-02T20:34:53.194Z,3.83
2023-04-02T20:37:21.485Z,3.92
2023-04-02T20:39:49.147Z,4.20
2023-04-02T20:42:16.836Z,4.13
2023-04-02T20:44:44.469Z,3.33
2023-04-02T20:47:12.134Z,3.33
2023-04-02T20:49:39.703Z,3.35
2023-04-02T20:52:07.406Z,2.95
2023-04-02T20:54:35.036Z,3.28
2023-04-02T20:57:07.761Z,3.45
2023-04-02T20:59:35.299Z,3.33
2023-04-02T21:02:02.482Z,4.35
2023-04-02T21:04:29.729Z,3.30
2023-04-02T21:06:57.473Z,4.05
2023-04-02T21:09:25.123Z,2.70
2023-04-02T21:11:52.321Z,2.70
2023-04-02T21:14:19.590Z,2.97
2023-04-02T21:16:46.758Z,3.08
2023-04-02T21:19:13.929Z,2.88
2023-04-02T21:21:41.357Z,2.78
2023-04-02T21:24:18.046Z,3.13
2023-04-02T21:26:52.459Z,3.05
2023-04-02T21:29:20.434Z,2.90
2023-04-02T21:31:49.319Z,2.85
2023-04-02T21:34:17.397Z,3.30
2023-04-02T21:36:48.798Z,2.50
2023-04-02T21:39:24.135Z,2.78
2023-04-02T21:41:54.774Z,3.55
2023-04-02T21:44:24.392Z,3.00
2023-04-02T21:46:54.090Z,2.80
2023-04-02T21:49:23.543Z,2.90
2023-04-02T21:54:21.707Z,2.58
2023-04-02T21:56:49.869Z,3.13
2023-04-02T21:59:18.661Z,3.53
2023-04-02T22:01:52.073Z,3.40
2023-04-02T22:04:25.961Z,3.42
2023-04-02T22:06:54.193Z,2.97
2023-04-02T22:09:26.583Z,3.10
2023-04-02T22:12:01.463Z,3.33
2023-04-02T22:14:30.242Z,3.28
2023-04-02T22:17:00.788Z,2.80
2023-04-02T22:19:28.638Z,3.10
2023-04-02T22:21:56.730Z,2.80
2023-04-02T22:24:24.984Z,3.13
2023-04-02T22:26:52.722Z,3.03
2023-04-02T22:29:19.853Z,3.00
2023-04-02T22:31:47.658Z,2.20
2023-04-02T22:34:15.630Z,3.00
2023-04-02T22:36:43.389Z,2.40
2023-04-02T22:39:12.650Z,2.72
2023-04-02T22:41:40.365Z,2.90
2023-04-02T22:44:07.857Z,2.85
2023-04-02T22:46:35.246Z,2.85
2023-04-02T22:49:03.125Z,2.42
2023-04-02T22:51:30.630Z,2.42
2023-04-02T22:53:58.084Z,2.88
2023-04-02T22:56:31.895Z,2.75
2023-04-02T22:58:59.838Z,2.65
2023-04-02T23:01:35.384Z,2.40
2023-04-02T23:04:04.817Z,2.60
2023-04-02T23:06:32.978Z,2.43
2023-04-02T23:09:00.489Z,2.72
2023-04-02T23:11:28.432Z,2.25
2023-04-02T23:13:58.231Z,3.00
2023-04-02T23:16:28.471Z,2.50
2023-04-02T23:18:57.710Z,2.40
2023-04-02T23:21:26.236Z,2.60
2023-04-02T23:23:54.520Z,3.13
2023-04-02T23:26:32.261Z,2.50
2023-04-02T23:29:02.500Z,2.85
2023-04-02T23:31:29.965Z,2.80
2023-04-02T23:33:58.007Z,2.42
2023-04-02T23:36:31.889Z,2.38
2023-04-02T23:39:09.232Z,3.13
2023-04-02T23:41:40.882Z,2.60
2023-04-02T23:44:09.590Z,2.90
2023-04-02T23:46:37.271Z,2.75
2023-04-02T23:49:04.541Z,2.50
2023-04-02T23:51:32.443Z,2.55
2023-04-02T23:54:00.238Z,3.05
2023-04-02T23:56:28.101Z,2.40
2023-04-02T23:58:55.388Z,2.72
